sensor_id;sensor_type;location;lat;lon;timestamp;P1;durP1;ratioP1;P2;durP2;ratioP2
3819;SDS011;1925;51.356;9.530;2023-05-17T00:01:36;4.28;;;2.38;;
3819;SDS011;1925;51.356;9.530;2023-05-17T00:04:02;6.50;;;2.90;;
3819;SDS011;1925;51.356;9.530;2023-05-17T00:06:28;5.83;;;2.17;;
3819;SDS011;1925;51.356;9.530;2023-05-17T00:08:55;4.80;;;2.50;;
3819;SDS011;1925;51.356;9.530;2023-05-17T00:11:21;6.00;;;1.73;;
3819;SDS011;1925;51.356;9.530;2023-05-17T00:13:47;4.90;;;2.87;;
3819;SDS011;1925;51.356;9.530;2023-05-17T00:16:13;5.70;;;2.57;;
3819;SDS011;1925;51.356;9.530;2023-05-17T00:18:39;3.33;;;1.75;;
3819;SDS011;1925;51.356;9.530;2023-05-17T00:21:05;5.37;;;2.43;;
3819;SDS011;1925;51.356;9.530;2023-05-17T00:23:31;4.97;;;2.13;;
3819;SDS011;1925;51.356;9.530;2023-05-17T00:25:57;7.40;;;2.43;;
3819;SDS011;1925;51.356;9.530;2023-05-17T00:28:23;4.40;;;2.20;;
3819;SDS011;1925;51.356;9.530;2023-05-17T00:30:48;4.03;;;2.20;;
3819;SDS011;1925;51.356;9.530;2023-05-17T00:33:15;5.53;;;2.95;;
3819;SDS011;1925;51.356;9.530;2023-05-17T00:35:40;3.70;;;1.83;;
3819;SDS011;1925;51.356;9.530;2023-05-17T00:38:06;6.73;;;2.90;;
3819;SDS011;1925;51.356;9.530;2023-05-17T00:40:32;4.13;;;1.90;;
3819;SDS011;1925;51.356;9.530;2023-05-17T00:42:58;3.35;;;2.60;;
3819;SDS011;1925;51.356;9.530;2023-05-17T00:45:24;3.53;;;2.13;;
3819;SDS011;1925;51.356;9.530;2023-05-17T00:47:50;4.55;;;2.50;;
3819;SDS011;1925;51.356;9.530;2023-05-17T00:50:16;2.43;;;2.00;;
3819;SDS011;1925;51.356;9.530;2023-05-17T00:52:42;5.18;;;2.47;;
3819;SDS011;1925;51.356;9.530;2023-05-17T00:55:08;3.83;;;1.83;;
3819;SDS011;1925;51.356;9.530;2023-05-17T00:57:34;2.50;;;2.00;;
3819;SDS011;1925;51.356;9.530;2023-05-17T01:00:00;4.05;;;2.65;;
3819;SDS011;1925;51.356;9.530;2023-05-17T01:02:26;4.38;;;1.73;;
3819;SDS011;1925;51.356;9.530;2023-05-17T01:04:52;2.90;;;2.03;;
3819;SDS011;1925;51.356;9.530;2023-05-17T01:07:18;4.90;;;2.30;;
3819;SDS011;1925;51.356;9.530;2023-05-17T01:09:44;2.60;;;2.03;;
3819;SDS011;1925;51.356;9.530;2023-05-17T01:12:31;2.95;;;2.50;;
3819;SDS011;1925;51.356;9.530;2023-05-17T01:15:18;3.85;;;1.70;;
3819;SDS011;1925;51.356;9.530;2023-05-17T01:20:39;4.47;;;2.22;;
3819;SDS011;1925;51.356;9.530;2023-05-17T01:25:56;9.18;;;2.20;;
3819;SDS011;1925;51.356;9.530;2023-05-17T01:28:22;3.42;;;1.98;;
3819;SDS011;1925;51.356;9.530;2023-05-17T01:30:50;4.18;;;2.22;;
3819;SDS011;1925;51.356;9.530;2023-05-17T01:33:17;3.90;;;2.30;;
3819;SDS011;1925;51.356;9.530;2023-05-17T01:35:44;4.72;;;2.70;;
3819;SDS011;1925;51.356;9.530;2023-05-17T01:38:10;4.47;;;1.70;;
3819;SDS011;1925;51.356;9.530;2023-05-17T01:40:38;3.57;;;2.00;;
3819;SDS011;1925;51.356;9.530;2023-05-17T01:43:25;4.43;;;1.50;;
3819;SDS011;1925;51.356;9.530;2023-05-17T01:45:56;4.00;;;2.05;;
3819;SDS011;1925;51.356;9.530;2023-05-17T01:48:30;5.32;;;2.15;;
3819;SDS011;1925;51.356;9.530;2023-05-17T01:50:57;6.10;;;2.53;;
3819;SDS011;1925;51.356;9.530;2023-05-17T01:53:36;3.80;;;2.55;;
3819;SDS011;1925;51.356;9.530;2023-05-17T01:56:03;4.25;;;2.75;;
3819;SDS011;1925;51.356;9.530;2023-05-17T01:58:29;5.68;;;2.17;;
3819;SDS011;1925;51.356;9.530;2023-05-17T02:00:56;3.72;;;1.75;;
3819;SDS011;1925;51.356;9.530;2023-05-17T02:03:23;4.00;;;2.10;;
3819;SDS011;1925;51.356;9.530;2023-05-17T02:05:49;2.80;;;2.33;;
3819;SDS011;1925;51.356;9.530;2023-05-17T02:08:15;4.80;;;2.10;;
3819;SDS011;1925;51.356;9.530;2023-05-17T02:10:41;8.40;;;2.30;;
3819;SDS011;1925;51.356;9.530;2023-05-17T02:13:07;3.93;;;2.27;;
3819;SDS011;1925;51.356;9.530;2023-05-17T02:15:33;4.60;;;2.33;;
3819;SDS011;1925;51.356;9.530;2023-05-17T02:17:59;3.63;;;2.20;;
3819;SDS011;1925;51.356;9.530;2023-05-17T02:20:25;6.15;;;2.70;;
3819;SDS011;1925;51.356;9.530;2023-05-17T02:22:51;5.53;;;2.57;;
3819;SDS011;1925;51.356;9.530;2023-05-17T02:25:17;4.20;;;2.20;;
3819;SDS011;1925;51.356;9.530;2023-05-17T02:27:43;6.37;;;2.57;;
3819;SDS011;1925;51.356;9.530;2023-05-17T02:30:09;6.40;;;2.43;;
3819;SDS011;1925;51.356;9.530;2023-05-17T02:32:35;12.52;;;2.45;;
3819;SDS011;1925;51.356;9.530;2023-05-17T02:35:02;3.40;;;1.88;;
3819;SDS011;1925;51.356;9.530;2023-05-17T02:37:28;4.85;;;2.20;;
3819;SDS011;1925;51.356;9.530;2023-05-17T02:39:54;3.53;;;2.40;;
3819;SDS011;1925;51.356;9.530;2023-05-17T02:42:20;5.60;;;2.60;;
3819;SDS011;1925;51.356;9.530;2023-05-17T02:44:46;3.33;;;2.00;;
3819;SDS011;1925;51.356;9.530;2023-05-17T02:47:16;4.00;;;2.10;;
3819;SDS011;1925;51.356;9.530;2023-05-17T02:49:42;4.38;;;2.00;;
3819;SDS011;1925;51.356;9.530;2023-05-17T02:52:08;4.40;;;2.20;;
3819;SDS011;1925;51.356;9.530;2023-05-17T02:54:35;2.92;;;2.08;;
3819;SDS011;1925;51.356;9.530;2023-05-17T02:57:01;4.60;;;1.92;;
3819;SDS011;1925;51.356;9.530;2023-05-17T02:59:27;3.65;;;2.05;;
3819;SDS011;1925;51.356;9.530;2023-05-17T03:01:53;3.30;;;2.03;;
3819;SDS011;1925;51.356;9.530;2023-05-17T03:04:19;3.00;;;1.90;;
3819;SDS011;1925;51.356;9.530;2023-05-17T03:06:45;4.87;;;2.70;;
3819;SDS011;1925;51.356;9.530;2023-05-17T03:09:11;7.03;;;2.43;;
3819;SDS011;1925;51.356;9.530;2023-05-17T03:11:37;8.23;;;3.08;;
3819;SDS011;1925;51.356;9.530;2023-05-17T03:14:03;4.30;;;2.90;;
3819;SDS011;1925;51.356;9.530;2023-05-17T03:16:29;4.18;;;2.10;;
3819;SDS011;1925;51.356;9.530;2023-05-17T03:18:55;3.83;;;2.70;;
3819;SDS011;1925;51.356;9.530;2023-05-17T03:21:21;4.03;;;2.80;;
3819;SDS011;1925;51.356;9.530;2023-05-17T03:23:47;4.43;;;2.07;;
3819;SDS011;1925;51.356;9.530;2023-05-17T03:26:13;2.60;;;2.13;;
3819;SDS011;1925;51.356;9.530;2023-05-17T03:28:39;8.98;;;2.72;;
3819;SDS011;1925;51.356;9.530;2023-05-17T03:31:05;3.03;;;1.90;;
3819;SDS011;1925;51.356;9.530;2023-05-17T03:33:31;3.67;;;2.50;;
3819;SDS011;1925;51.356;9.530;2023-05-17T03:35:57;3.07;;;2.40;;
3819;SDS011;1925;51.356;9.530;2023-05-17T03:38:23;3.67;;;2.83;;
3819;SDS011;1925;51.356;9.530;2023-05-17T03:40:50;3.15;;;1.83;;
3819;SDS011;1925;51.356;9.530;2023-05-17T03:43:16;4.32;;;2.55;;
3819;SDS011;1925;51.356;9.530;2023-05-17T03:45:42;3.20;;;2.40;;
3819;SDS011;1925;51.356;9.530;2023-05-17T03:48:08;6.97;;;2.90;;
3819;SDS011;1925;51.356;9.530;2023-05-17T03:50:34;6.43;;;2.57;;
3819;SDS011;1925;51.356;9.530;2023-05-17T03:52:59;5.03;;;2.60;;
3819;SDS011;1925;51.356;9.530;2023-05-17T03:55:25;3.90;;;2.70;;
3819;SDS011;1925;51.356;9.530;2023-05-17T03:57:51;7.57;;;2.63;;
3819;SDS011;1925;51.356;9.530;2023-05-17T04:00:17;5.13;;;2.77;;
3819;SDS011;1925;51.356;9.530;2023-05-17T04:02:47;3.95;;;2.35;;
3819;SDS011;1925;51.356;9.530;2023-05-17T04:05:13;5.78;;;2.30;;
3819;SDS011;1925;51.356;9.530;2023-05-17T04:07:39;4.25;;;2.67;;
3819;SDS011;1925;51.356;9.530;2023-05-17T04:10:06;4.60;;;2.63;;
3819;SDS011;1925;51.356;9.530;2023-05-17T04:12:32;3.13;;;2.15;;
3819;SDS011;1925;51.356;9.530;2023-05-17T04:14:59;9.52;;;3.17;;
3819;SDS011;1925;51.356;9.530;2023-05-17T04:17:25;5.80;;;3.17;;
3819;SDS011;1925;51.356;9.530;2023-05-17T04:19:51;3.78;;;2.60;;
3819;SDS011;1925;51.356;9.530;2023-05-17T04:22:18;5.17;;;2.60;;
3819;SDS011;1925;51.356;9.530;2023-05-17T04:24:44;6.85;;;3.35;;
3819;SDS011;1925;51.356;9.530;2023-05-17T04:27:10;3.92;;;2.65;;
3819;SDS011;1925;51.356;9.530;2023-05-17T04:29:36;8.10;;;2.63;;
3819;SDS011;1925;51.356;9.530;2023-05-17T04:32:02;4.37;;;3.03;;
3819;SDS011;1925;51.356;9.530;2023-05-17T04:34:28;8.15;;;2.90;;
3819;SDS011;1925;51.356;9.530;2023-05-17T04:36:56;10.13;;;3.25;;
3819;SDS011;1925;51.356;9.530;2023-05-17T04:39:22;4.95;;;2.97;;
3819;SDS011;1925;51.356;9.530;2023-05-17T04:41:48;8.00;;;3.27;;
3819;SDS011;1925;51.356;9.530;2023-05-17T04:44:14;6.87;;;4.10;;
3819;SDS011;1925;51.356;9.530;2023-05-17T04:46:41;9.07;;;3.15;;
3819;SDS011;1925;51.356;9.530;2023-05-17T04:49:09;6.40;;;2.92;;
3819;SDS011;1925;51.356;9.530;2023-05-17T04:51:35;9.75;;;3.97;;
3819;SDS011;1925;51.356;9.530;2023-05-17T04:54:01;6.63;;;3.73;;
3819;SDS011;1925;51.356;9.530;2023-05-17T04:56:30;5.50;;;3.88;;
3819;SDS011;1925;51.356;9.530;2023-05-17T04:58:56;6.50;;;3.10;;
3819;SDS011;1925;51.356;9.530;2023-05-17T05:01:22;5.13;;;3.10;;
3819;SDS011;1925;51.356;9.530;2023-05-17T05:03:48;9.93;;;4.57;;
3819;SDS011;1925;51.356;9.530;2023-05-17T05:06:14;3.58;;;3.20;;
3819;SDS011;1925;51.356;9.530;2023-05-17T05:08:40;6.43;;;3.50;;
3819;SDS011;1925;51.356;9.530;2023-05-17T05:11:06;5.87;;;3.03;;
3819;SDS011;1925;51.356;9.530;2023-05-17T05:13:32;4.60;;;3.20;;
3819;SDS011;1925;51.356;9.530;2023-05-17T05:15:58;5.50;;;3.50;;
3819;SDS011;1925;51.356;9.530;2023-05-17T05:18:24;9.90;;;4.07;;
3819;SDS011;1925;51.356;9.530;2023-05-17T05:20:50;7.65;;;3.80;;
3819;SDS011;1925;51.356;9.530;2023-05-17T05:23:16;8.53;;;3.50;;
3819;SDS011;1925;51.356;9.530;2023-05-17T05:25:42;10.13;;;3.92;;
3819;SDS011;1925;51.356;9.530;2023-05-17T05:28:08;7.85;;;4.60;;
3819;SDS011;1925;51.356;9.530;2023-05-17T05:30:35;8.65;;;4.00;;
3819;SDS011;1925;51.356;9.530;2023-05-17T05:33:01;12.77;;;5.67;;
3819;SDS011;1925;51.356;9.530;2023-05-17T05:35:27;7.82;;;3.78;;
3819;SDS011;1925;51.356;9.530;2023-05-17T05:37:54;5.03;;;4.07;;
3819;SDS011;1925;51.356;9.530;2023-05-17T05:40:20;8.07;;;4.40;;
3819;SDS011;1925;51.356;9.530;2023-05-17T05:42:46;8.30;;;3.83;;
3819;SDS011;1925;51.356;9.530;2023-05-17T05:45:12;10.30;;;3.77;;
3819;SDS011;1925;51.356;9.530;2023-05-17T05:47:38;8.43;;;4.40;;
3819;SDS011;1925;51.356;9.530;2023-05-17T05:50:04;7.17;;;4.47;;
3819;SDS011;1925;51.356;9.530;2023-05-17T05:52:30;7.45;;;4.40;;
3819;SDS011;1925;51.356;9.530;2023-05-17T05:54:56;11.53;;;3.77;;
3819;SDS011;1925;51.356;9.530;2023-05-17T05:57:22;8.43;;;4.87;;
3819;SDS011;1925;51.356;9.530;2023-05-17T05:59:48;10.63;;;4.20;;
3819;SDS011;1925;51.356;9.530;2023-05-17T06:02:14;8.47;;;4.17;;
3819;SDS011;1925;51.356;9.530;2023-05-17T06:04:41;8.20;;;3.60;;
3819;SDS011;1925;51.356;9.530;2023-05-17T06:07:07;12.13;;;4.77;;
3819;SDS011;1925;51.356;9.530;2023-05-17T06:09:33;12.40;;;5.00;;
3819;SDS011;1925;51.356;9.530;2023-05-17T06:11:59;9.37;;;3.57;;
3819;SDS011;1925;51.356;9.530;2023-05-17T06:14:25;7.75;;;4.30;;
3819;SDS011;1925;51.356;9.530;2023-05-17T06:16:51;9.70;;;4.17;;
3819;SDS011;1925;51.356;9.530;2023-05-17T06:19:17;7.50;;;3.90;;
3819;SDS011;1925;51.356;9.530;2023-05-17T06:21:44;8.77;;;4.25;;
3819;SDS011;1925;51.356;9.530;2023-05-17T06:24:10;10.65;;;4.43;;
3819;SDS011;1925;51.356;9.530;2023-05-17T06:26:36;9.60;;;3.80;;
3819;SDS011;1925;51.356;9.530;2023-05-17T06:29:02;9.27;;;3.40;;
3819;SDS011;1925;51.356;9.530;2023-05-17T06:31:28;5.30;;;3.50;;
3819;SDS011;1925;51.356;9.530;2023-05-17T06:33:53;10.10;;;3.33;;
3819;SDS011;1925;51.356;9.530;2023-05-17T06:36:19;10.20;;;3.43;;
3819;SDS011;1925;51.356;9.530;2023-05-17T06:38:45;11.60;;;3.80;;
3819;SDS011;1925;51.356;9.530;2023-05-17T06:41:11;7.97;;;3.37;;
3819;SDS011;1925;51.356;9.530;2023-05-17T06:43:37;11.00;;;5.07;;
3819;SDS011;1925;51.356;9.530;2023-05-17T06:46:03;12.03;;;3.80;;
3819;SDS011;1925;51.356;9.530;2023-05-17T06:48:29;8.40;;;3.55;;
3819;SDS011;1925;51.356;9.530;2023-05-17T06:50:55;6.03;;;3.13;;
3819;SDS011;1925;51.356;9.530;2023-05-17T06:53:21;7.07;;;3.53;;
3819;SDS011;1925;51.356;9.530;2023-05-17T06:55:47;4.77;;;2.97;;
3819;SDS011;1925;51.356;9.530;2023-05-17T06:58:13;13.00;;;3.63;;
3819;SDS011;1925;51.356;9.530;2023-05-17T07:00:39;10.10;;;2.90;;
3819;SDS011;1925;51.356;9.530;2023-05-17T07:03:05;7.07;;;3.20;;
3819;SDS011;1925;51.356;9.530;2023-05-17T07:05:31;8.63;;;2.60;;
3819;SDS011;1925;51.356;9.530;2023-05-17T07:07:57;10.18;;;2.63;;
3819;SDS011;1925;51.356;9.530;2023-05-17T07:10:23;6.50;;;3.25;;
3819;SDS011;1925;51.356;9.530;2023-05-17T07:12:49;6.70;;;2.90;;
3819;SDS011;1925;51.356;9.530;2023-05-17T07:15:15;13.63;;;3.27;;
3819;SDS011;1925;51.356;9.530;2023-05-17T07:17:41;11.40;;;3.30;;
3819;SDS011;1925;51.356;9.530;2023-05-17T07:20:07;5.90;;;3.37;;
3819;SDS011;1925;51.356;9.530;2023-05-17T07:22:33;10.75;;;2.78;;
3819;SDS011;1925;51.356;9.530;2023-05-17T07:24:59;6.72;;;2.67;;
3819;SDS011;1925;51.356;9.530;2023-05-17T07:27:25;12.50;;;3.00;;
3819;SDS011;1925;51.356;9.530;2023-05-17T07:29:51;7.67;;;3.00;;
3819;SDS011;1925;51.356;9.530;2023-05-17T07:32:17;8.73;;;2.40;;
3819;SDS011;1925;51.356;9.530;2023-05-17T07:34:43;10.73;;;3.37;;
3819;SDS011;1925;51.356;9.530;2023-05-17T07:37:09;9.30;;;2.83;;
3819;SDS011;1925;51.356;9.530;2023-05-17T07:39:35;8.50;;;2.67;;
3819;SDS011;1925;51.356;9.530;2023-05-17T07:42:01;9.87;;;2.67;;
3819;SDS011;1925;51.356;9.530;2023-05-17T07:44:27;3.20;;;1.93;;
3819;SDS011;1925;51.356;9.530;2023-05-17T07:46:53;13.40;;;2.97;;
3819;SDS011;1925;51.356;9.530;2023-05-17T07:49:19;7.83;;;2.80;;
3819;SDS011;1925;51.356;9.530;2023-05-17T07:51:45;6.43;;;1.97;;
3819;SDS011;1925;51.356;9.530;2023-05-17T07:54:12;15.20;;;2.40;;
3819;SDS011;1925;51.356;9.530;2023-05-17T07:56:47;10.52;;;3.08;;
3819;SDS011;1925;51.356;9.530;2023-05-17T07:59:13;12.02;;;2.80;;
3819;SDS011;1925;51.356;9.530;2023-05-17T08:01:39;4.78;;;1.55;;
3819;SDS011;1925;51.356;9.530;2023-05-17T08:04:05;9.10;;;2.00;;
3819;SDS011;1925;51.356;9.530;2023-05-17T08:06:31;3.70;;;1.43;;
3819;SDS011;1925;51.356;9.530;2023-05-17T08:08:57;4.23;;;2.27;;
3819;SDS011;1925;51.356;9.530;2023-05-17T08:11:23;9.40;;;1.97;;
3819;SDS011;1925;51.356;9.530;2023-05-17T08:13:49;7.38;;;2.17;;
3819;SDS011;1925;51.356;9.530;2023-05-17T08:16:15;8.40;;;2.83;;
3819;SDS011;1925;51.356;9.530;2023-05-17T08:18:41;11.27;;;2.50;;
3819;SDS011;1925;51.356;9.530;2023-05-17T08:21:07;9.02;;;2.30;;
3819;SDS011;1925;51.356;9.530;2023-05-17T08:23:33;9.27;;;2.40;;
3819;SDS011;1925;51.356;9.530;2023-05-17T08:25:59;3.63;;;1.30;;
3819;SDS011;1925;51.356;9.530;2023-05-17T08:28:25;3.92;;;2.17;;
3819;SDS011;1925;51.356;9.530;2023-05-17T08:30:52;3.65;;;2.47;;
3819;SDS011;1925;51.356;9.530;2023-05-17T08:33:18;8.43;;;2.47;;
3819;SDS011;1925;51.356;9.530;2023-05-17T08:35:46;7.10;;;2.20;;
3819;SDS011;1925;51.356;9.530;2023-05-17T08:38:13;6.40;;;2.20;;
3819;SDS011;1925;51.356;9.530;2023-05-17T08:40:39;7.80;;;2.50;;
3819;SDS011;1925;51.356;9.530;2023-05-17T08:43:05;6.93;;;2.20;;
3819;SDS011;1925;51.356;9.530;2023-05-17T08:45:32;6.30;;;2.17;;
3819;SDS011;1925;51.356;9.530;2023-05-17T08:47:58;6.17;;;2.50;;
3819;SDS011;1925;51.356;9.530;2023-05-17T08:50:25;15.48;;;3.03;;
3819;SDS011;1925;51.356;9.530;2023-05-17T08:52:54;11.05;;;3.60;;
3819;SDS011;1925;51.356;9.530;2023-05-17T08:55:22;8.55;;;3.05;;
3819;SDS011;1925;51.356;9.530;2023-05-17T08:57:49;7.53;;;2.10;;
3819;SDS011;1925;51.356;9.530;2023-05-17T09:00:15;6.13;;;2.30;;
3819;SDS011;1925;51.356;9.530;2023-05-17T09:02:44;13.07;;;2.97;;
3819;SDS011;1925;51.356;9.530;2023-05-17T09:05:11;10.48;;;2.50;;
3819;SDS011;1925;51.356;9.530;2023-05-17T09:07:38;11.82;;;3.15;;
3819;SDS011;1925;51.356;9.530;2023-05-17T09:10:04;6.83;;;2.23;;
3819;SDS011;1925;51.356;9.530;2023-05-17T09:12:33;5.28;;;2.15;;
3819;SDS011;1925;51.356;9.530;2023-05-17T09:17:39;7.10;;;2.60;;
3819;SDS011;1925;51.356;9.530;2023-05-17T09:20:06;5.07;;;1.70;;
3819;SDS011;1925;51.356;9.530;2023-05-17T09:22:32;6.85;;;2.33;;
3819;SDS011;1925;51.356;9.530;2023-05-17T09:24:59;11.13;;;2.08;;
3819;SDS011;1925;51.356;9.530;2023-05-17T09:27:29;8.13;;;2.42;;
3819;SDS011;1925;51.356;9.530;2023-05-17T09:29:55;5.75;;;2.05;;
3819;SDS011;1925;51.356;9.530;2023-05-17T09:32:22;5.53;;;2.20;;
3819;SDS011;1925;51.356;9.530;2023-05-17T09:34:52;12.52;;;1.90;;
3819;SDS011;1925;51.356;9.530;2023-05-17T09:37:20;6.35;;;2.00;;
3819;SDS011;1925;51.356;9.530;2023-05-17T09:39:46;6.32;;;1.73;;
3819;SDS011;1925;51.356;9.530;2023-05-17T09:42:12;4.05;;;2.13;;
3819;SDS011;1925;51.356;9.530;2023-05-17T09:44:51;7.15;;;1.80;;
3819;SDS011;1925;51.356;9.530;2023-05-17T09:47:27;6.00;;;2.40;;
3819;SDS011;1925;51.356;9.530;2023-05-17T09:49:57;2.92;;;1.50;;
3819;SDS011;1925;51.356;9.530;2023-05-17T09:52:25;8.75;;;2.65;;
3819;SDS011;1925;51.356;9.530;2023-05-17T09:54:58;5.38;;;2.05;;
3819;SDS011;1925;51.356;9.530;2023-05-17T09:57:25;6.18;;;1.88;;
3819;SDS011;1925;51.356;9.530;2023-05-17T09:59:54;8.95;;;2.25;;
3819;SDS011;1925;51.356;9.530;2023-05-17T10:02:21;5.22;;;1.88;;
3819;SDS011;1925;51.356;9.530;2023-05-17T10:04:48;6.22;;;2.17;;
3819;SDS011;1925;51.356;9.530;2023-05-17T10:07:18;6.22;;;1.77;;
3819;SDS011;1925;51.356;9.530;2023-05-17T10:09:48;11.83;;;1.87;;
3819;SDS011;1925;51.356;9.530;2023-05-17T10:12:18;9.27;;;1.95;;
3819;SDS011;1925;51.356;9.530;2023-05-17T10:14:46;7.70;;;1.63;;
3819;SDS011;1925;51.356;9.530;2023-05-17T10:17:12;5.67;;;1.50;;
3819;SDS011;1925;51.356;9.530;2023-05-17T10:19:39;9.03;;;2.10;;
3819;SDS011;1925;51.356;9.530;2023-05-17T10:22:05;8.53;;;2.10;;
3819;SDS011;1925;51.356;9.530;2023-05-17T10:24:31;10.03;;;1.80;;
3819;SDS011;1925;51.356;9.530;2023-05-17T10:26:58;6.07;;;2.00;;
3819;SDS011;1925;51.356;9.530;2023-05-17T10:29:25;7.65;;;2.25;;
3819;SDS011;1925;51.356;9.530;2023-05-17T10:31:51;3.65;;;1.58;;
3819;SDS011;1925;51.356;9.530;2023-05-17T10:34:17;4.80;;;2.97;;
3819;SDS011;1925;51.356;9.530;2023-05-17T10:36:43;8.90;;;2.13;;
3819;SDS011;1925;51.356;9.530;2023-05-17T10:39:10;7.23;;;1.77;;
3819;SDS011;1925;51.356;9.530;2023-05-17T10:41:38;3.77;;;1.40;;
3819;SDS011;1925;51.356;9.530;2023-05-17T10:44:05;6.30;;;2.50;;
3819;SDS011;1925;51.356;9.530;2023-05-17T10:46:33;1.73;;;1.07;;
3819;SDS011;1925;51.356;9.530;2023-05-17T10:48:59;6.23;;;2.93;;
3819;SDS011;1925;51.356;9.530;2023-05-17T10:51:29;5.50;;;1.53;;
3819;SDS011;1925;51.356;9.530;2023-05-17T10:54:11;3.23;;;1.57;;
3819;SDS011;1925;51.356;9.530;2023-05-17T10:56:51;6.13;;;1.03;;
3819;SDS011;1925;51.356;9.530;2023-05-17T10:59:24;3.33;;;1.17;;
3819;SDS011;1925;51.356;9.530;2023-05-17T11:04:19;6.47;;;1.93;;
3819;SDS011;1925;51.356;9.530;2023-05-17T11:06:47;6.00;;;2.20;;
3819;SDS011;1925;51.356;9.530;2023-05-17T11:09:14;6.30;;;1.40;;
3819;SDS011;1925;51.356;9.530;2023-05-17T11:14:25;3.93;;;1.50;;
3819;SDS011;1925;51.356;9.530;2023-05-17T11:16:51;7.80;;;2.23;;
3819;SDS011;1925;51.356;9.530;2023-05-17T11:19:21;6.20;;;1.90;;
3819;SDS011;1925;51.356;9.530;2023-05-17T11:21:47;3.17;;;1.40;;
3819;SDS011;1925;51.356;9.530;2023-05-17T11:24:24;8.33;;;1.80;;
3819;SDS011;1925;51.356;9.530;2023-05-17T11:26:51;5.87;;;1.80;;
3819;SDS011;1925;51.356;9.530;2023-05-17T11:29:20;5.43;;;1.93;;
3819;SDS011;1925;51.356;9.530;2023-05-17T11:31:49;5.97;;;1.97;;
3819;SDS011;1925;51.356;9.530;2023-05-17T11:34:16;8.10;;;1.60;;
3819;SDS011;1925;51.356;9.530;2023-05-17T11:36:52;4.80;;;1.87;;
3819;SDS011;1925;51.356;9.530;2023-05-17T11:39:19;5.37;;;2.23;;
3819;SDS011;1925;51.356;9.530;2023-05-17T11:41:47;4.07;;;1.33;;
3819;SDS011;1925;51.356;9.530;2023-05-17T11:44:13;10.30;;;2.13;;
3819;SDS011;1925;51.356;9.530;2023-05-17T11:46:40;4.30;;;1.30;;
3819;SDS011;1925;51.356;9.530;2023-05-17T11:49:06;5.90;;;1.43;;
3819;SDS011;1925;51.356;9.530;2023-05-17T11:51:32;11.20;;;1.63;;
3819;SDS011;1925;51.356;9.530;2023-05-17T11:53:58;4.27;;;1.50;;
3819;SDS011;1925;51.356;9.530;2023-05-17T11:56:28;6.37;;;1.60;;
3819;SDS011;1925;51.356;9.530;2023-05-17T11:58:54;7.80;;;2.43;;
3819;SDS011;1925;51.356;9.530;2023-05-17T12:01:20;8.70;;;2.10;;
3819;SDS011;1925;51.356;9.530;2023-05-17T12:03:46;6.20;;;1.50;;
3819;SDS011;1925;51.356;9.530;2023-05-17T12:06:20;5.33;;;1.67;;
3819;SDS011;1925;51.356;9.530;2023-05-17T12:08:46;7.50;;;1.23;;
3819;SDS011;1925;51.356;9.530;2023-05-17T12:11:15;6.37;;;2.00;;
3819;SDS011;1925;51.356;9.530;2023-05-17T12:13:42;2.70;;;1.17;;
3819;SDS011;1925;51.356;9.530;2023-05-17T12:16:13;5.20;;;1.87;;
3819;SDS011;1925;51.356;9.530;2023-05-17T12:18:40;5.53;;;1.80;;
3819;SDS011;1925;51.356;9.530;2023-05-17T12:21:07;3.40;;;1.20;;
3819;SDS011;1925;51.356;9.530;2023-05-17T12:23:37;5.40;;;1.30;;
3819;SDS011;1925;51.356;9.530;2023-05-17T12:26:10;4.63;;;1.67;;
3819;SDS011;1925;51.356;9.530;2023-05-17T12:28:39;5.87;;;1.73;;
3819;SDS011;1925;51.356;9.530;2023-05-17T12:31:07;7.33;;;1.60;;
3819;SDS011;1925;51.356;9.530;2023-05-17T12:33:35;6.10;;;1.63;;
3819;SDS011;1925;51.356;9.530;2023-05-17T12:36:03;6.63;;;1.60;;
3819;SDS011;1925;51.356;9.530;2023-05-17T12:38:30;6.07;;;1.90;;
3819;SDS011;1925;51.356;9.530;2023-05-17T12:40:57;5.80;;;1.40;;
3819;SDS011;1925;51.356;9.530;2023-05-17T12:43:24;9.40;;;2.40;;
3819;SDS011;1925;51.356;9.530;2023-05-17T12:45:51;5.07;;;2.00;;
3819;SDS011;1925;51.356;9.530;2023-05-17T12:48:17;6.80;;;1.43;;
3819;SDS011;1925;51.356;9.530;2023-05-17T12:50:43;4.90;;;1.73;;
3819;SDS011;1925;51.356;9.530;2023-05-17T12:53:10;6.40;;;1.60;;
3819;SDS011;1925;51.356;9.530;2023-05-17T12:55:36;6.97;;;1.90;;
3819;SDS011;1925;51.356;9.530;2023-05-17T12:58:02;9.50;;;2.27;;
3819;SDS011;1925;51.356;9.530;2023-05-17T13:00:28;9.13;;;2.27;;
3819;SDS011;1925;51.356;9.530;2023-05-17T13:02:55;2.30;;;1.47;;
3819;SDS011;1925;51.356;9.530;2023-05-17T13:05:21;4.90;;;2.20;;
3819;SDS011;1925;51.356;9.530;2023-05-17T13:07:47;4.57;;;1.67;;
3819;SDS011;1925;51.356;9.530;2023-05-17T13:10:22;6.87;;;1.97;;
3819;SDS011;1925;51.356;9.530;2023-05-17T13:12:53;7.03;;;2.13;;
3819;SDS011;1925;51.356;9.530;2023-05-17T13:15:19;5.47;;;1.80;;
3819;SDS011;1925;51.356;9.530;2023-05-17T13:17:48;10.03;;;1.83;;
3819;SDS011;1925;51.356;9.530;2023-05-17T13:20:14;4.03;;;1.23;;
3819;SDS011;1925;51.356;9.530;2023-05-17T13:22:44;9.50;;;2.93;;
3819;SDS011;1925;51.356;9.530;2023-05-17T13:25:10;2.90;;;1.80;;
3819;SDS011;1925;51.356;9.530;2023-05-17T13:27:36;4.90;;;1.47;;
3819;SDS011;1925;51.356;9.530;2023-05-17T13:30:02;5.50;;;1.97;;
3819;SDS011;1925;51.356;9.530;2023-05-17T13:32:28;9.00;;;1.80;;
3819;SDS011;1925;51.356;9.530;2023-05-17T13:34:55;9.20;;;2.03;;
3819;SDS011;1925;51.356;9.530;2023-05-17T13:37:21;6.80;;;2.60;;
3819;SDS011;1925;51.356;9.530;2023-05-17T13:39:47;3.90;;;1.60;;
3819;SDS011;1925;51.356;9.530;2023-05-17T13:42:13;6.70;;;2.27;;
3819;SDS011;1925;51.356;9.530;2023-05-17T13:44:39;3.80;;;1.50;;
3819;SDS011;1925;51.356;9.530;2023-05-17T13:47:05;7.00;;;2.10;;
3819;SDS011;1925;51.356;9.530;2023-05-17T13:49:32;5.30;;;2.00;;
3819;SDS011;1925;51.356;9.530;2023-05-17T13:51:58;5.83;;;1.80;;
3819;SDS011;1925;51.356;9.530;2023-05-17T13:54:24;5.53;;;1.50;;
3819;SDS011;1925;51.356;9.530;2023-05-17T13:56:51;5.87;;;1.90;;
3819;SDS011;1925;51.356;9.530;2023-05-17T13:59:18;4.60;;;1.77;;
3819;SDS011;1925;51.356;9.530;2023-05-17T14:01:44;5.70;;;2.10;;
3819;SDS011;1925;51.356;9.530;2023-05-17T14:04:10;3.60;;;1.60;;
3819;SDS011;1925;51.356;9.530;2023-05-17T14:06:37;6.70;;;2.03;;
3819;SDS011;1925;51.356;9.530;2023-05-17T14:09:03;6.73;;;2.63;;
3819;SDS011;1925;51.356;9.530;2023-05-17T14:11:30;7.97;;;2.43;;
3819;SDS011;1925;51.356;9.530;2023-05-17T14:13:56;8.07;;;2.10;;
3819;SDS011;1925;51.356;9.530;2023-05-17T14:16:22;6.00;;;1.57;;
3819;SDS011;1925;51.356;9.530;2023-05-17T14:18:49;5.50;;;1.90;;
3819;SDS011;1925;51.356;9.530;2023-05-17T14:21:15;6.43;;;1.77;;
3819;SDS011;1925;51.356;9.530;2023-05-17T14:23:40;4.80;;;1.80;;
3819;SDS011;1925;51.356;9.530;2023-05-17T14:26:06;4.60;;;1.57;;
3819;SDS011;1925;51.356;9.530;2023-05-17T14:28:33;5.00;;;1.80;;
3819;SDS011;1925;51.356;9.530;2023-05-17T14:31:02;6.27;;;2.17;;
3819;SDS011;1925;51.356;9.530;2023-05-17T14:33:28;3.83;;;1.50;;
3819;SDS011;1925;51.356;9.530;2023-05-17T14:35:54;4.17;;;1.93;;
3819;SDS011;1925;51.356;9.530;2023-05-17T14:38:20;5.03;;;1.80;;
3819;SDS011;1925;51.356;9.530;2023-05-17T14:40:47;5.57;;;1.50;;
3819;SDS011;1925;51.356;9.530;2023-05-17T14:43:12;7.97;;;2.40;;
3819;SDS011;1925;51.356;9.530;2023-05-17T14:45:38;8.30;;;2.60;;
3819;SDS011;1925;51.356;9.530;2023-05-17T14:48:04;4.27;;;2.33;;
3819;SDS011;1925;51.356;9.530;2023-05-17T14:50:30;8.60;;;2.30;;
3819;SDS011;1925;51.356;9.530;2023-05-17T14:52:57;8.53;;;1.90;;
3819;SDS011;1925;51.356;9.530;2023-05-17T14:55:22;11.53;;;2.90;;
3819;SDS011;1925;51.356;9.530;2023-05-17T14:57:50;5.87;;;2.60;;
3819;SDS011;1925;51.356;9.530;2023-05-17T15:00:17;10.53;;;3.27;;
3819;SDS011;1925;51.356;9.530;2023-05-17T15:02:43;6.27;;;2.40;;
3819;SDS011;1925;51.356;9.530;2023-05-17T15:05:09;4.10;;;1.50;;
3819;SDS011;1925;51.356;9.530;2023-05-17T15:07:36;8.50;;;2.23;;
3819;SDS011;1925;51.356;9.530;2023-05-17T15:10:02;6.50;;;2.20;;
3819;SDS011;1925;51.356;9.530;2023-05-17T15:12:28;7.93;;;2.00;;
3819;SDS011;1925;51.356;9.530;2023-05-17T15:14:55;3.87;;;1.90;;
3819;SDS011;1925;51.356;9.530;2023-05-17T15:17:21;5.33;;;2.40;;
3819;SDS011;1925;51.356;9.530;2023-05-17T15:19:47;5.00;;;2.20;;
3819;SDS011;1925;51.356;9.530;2023-05-17T15:22:13;4.00;;;2.40;;
3819;SDS011;1925;51.356;9.530;2023-05-17T15:24:39;5.80;;;2.50;;
3819;SDS011;1925;51.356;9.530;2023-05-17T15:27:05;8.53;;;2.37;;